Meteo Giornale » Osservazioni meteo Emirati Arabi Uniti » Abu Dhabi
ore: 00:30 - Osservazioni Meteo Abu Dhabi
Lat. 24° 26' N Lon. 54° 39' E Alt. 16 metri s.l.m.
34 °C
Foschia
Temp. 24 Ore
30 °C
45 °C
Nord/Nord-Est
9.3 Km/h
Dew point 29 °C
Umidità 75 %
Visibilità 5 Km
Il sole sorge alle ore 06:02
Il sole tramonta alle ore 18:40
| Data e Ora | Cielo e Fenomeni | T °C | DP °C | Um. % | Pres. hPa | Vis. km | Vento km/h | |
|---|---|---|---|---|---|---|---|---|
| Oggi h: 00:30 | Foschia | 34 | 29 | 75 | 999 | 5 | N/NE 9.3 | |
| Oggi h: 00:00 | Foschia | 34 | 29 | 75 | 1000 | 5 | N 7.4 | |
| Ieri h: 23:30 | Foschia | 34 | 29 | 75 | 1000 | 5 | N 5.5 | |
| Ieri h: 23:00 | Foschia | 34 | 29 | 75 | 1000 | 5 | N 5.5 | |
| Ieri h: 22:30 | Foschia | 34 | 29 | 75 | 1000 | 5 | O/NO 7.4 | |
| Ieri h: 22:00 | Sereno | 35 | 29 | 71 | 1000 | 6 | O/NO 7.4 | |
| Ieri h: 21:30 | Sereno | 35 | 28 | 67 | 1000 | 7 | NO 9.3 | |
| Ieri h: 21:00 | Sereno | 35 | 28 | 67 | 999 | 8 | NO 7.4 | |
| Ieri h: 20:30 | Sereno | 36 | 27 | 60 | 999 | 8 | N/NO 11.1 | |
| Ieri h: 20:00 | Sereno | 36 | 27 | 60 | 999 | 8 | N/NO 13 | |
| Ieri h: 19:30 | Sereno | 37 | 27 | 56 | 999 | 8 | N/NO 16.7 | |
| Ieri h: 19:00 | Sereno | 37 | 25 | 50 | 999 | 8 | N/NO 18.5 | |
| Ieri h: 18:30 | Sereno | 38 | 25 | 47 | 999 | 8 | N/NO 16.7 | |
| Ieri h: 18:00 | Sereno | 38 | 24 | 45 | 999 | 8 | NO 18.5 | |
| Ieri h: 17:30 | Sereno | 38 | 24 | 45 | 999 | 10 | NO 20.3 | |
| Ieri h: 17:00 | Sereno | 40 | 22 | 35 | 999 | 10 | NO 22.2 | |
| Ieri h: 16:30 | Sereno | 41 | 17 | 24 | 998 | 10 | O/NO 18.5 | |
| Ieri h: 16:00 | Sereno | 41 | 18 | 26 | 999 | 10 | NO 20.3 | |
| Ieri h: 15:30 | Sereno | 43 | 14 | 18 | 999 | 10 | N/NO 20.3 | |
| Ieri h: 15:00 | Sereno | 42 | 13 | 18 | 999 | 10 | O/NO 22.2 | |
| Ieri h: 14:30 | Sereno | 43 | 10 | 14 | 999 | 10 | NO 25.9 | |
| Ieri h: 14:00 | Sereno | 45 | 11 | 13 | 1000 | 10 | NO 25.9 | |
| Ieri h: 13:30 | Sereno | 44 | 9 | 12 | 1000 | 10 | O/NO 22.2 | |
| Ieri h: 13:00 | Sereno | 45 | 5 | 9 | 1000 | 10 | O/NO 20.3 | |
| Ieri h: 12:30 | Sereno | 44 | 8 | 11 | 1001 | 10 | O/SO 13 | |
| Ieri h: 12:00 | Sereno | 43 | 9 | 13 | 1001 | 10 | SO 11.1 | |
| Ieri h: 11:30 | Sereno | 42 | 10 | 14 | 1001 | 10 | S 13 | |
| Ieri h: 11:00 | Sereno | 40 | 11 | 17 | 1002 | 10 | S 14.8 | |
| Ieri h: 10:30 | Sereno | 39 | 13 | 21 | 1002 | 10 | S 16.7 | |
| Ieri h: 10:00 | Sereno | 38 | 13 | 22 | 1002 | 10 | S 16.7 | |
| Ieri h: 09:30 | Sereno | 37 | 13 | 23 | 1002 | 10 | S/SE 16.7 | |
| Ieri h: 09:00 | Sereno | 36 | 13 | 25 | 1002 | 10 | S/SE 18.5 | |
| Ieri h: 08:30 | Sereno | 35 | 13 | 26 | 1002 | 10 | SE 22.2 | |
| Ieri h: 08:00 | Sereno | 34 | 13 | 28 | 1002 | 10 | S/SE 18.5 | |
| Ieri h: 07:30 | Sereno | 33 | 14 | 31 | 1002 | 10 | S/SE 13 | |
| Ieri h: 07:00 | Sereno | 31 | 19 | 48 | 1001 | 10 | SE 14.8 | |
| Ieri h: 06:30 | Sereno | 30 | 20 | 55 | 1001 | 10 | E/SE 14.8 | |
| Ieri h: 06:00 | Sereno | 30 | 22 | 62 | 1001 | 10 | E/SE 7.4 | |
| Ieri h: 05:30 | Sereno | 31 | 22 | 58 | 1001 | 10 | N 5.5 | |
| Ieri h: 05:00 | Sereno | 32 | 21 | 52 | 1001 | 10 | N 3.7 | |
| Ieri h: 04:30 | Sereno | 32 | 22 | 55 | 1001 | 10 | N 5.5 | |
| Ieri h: 04:00 | Sereno | 32 | 22 | 55 | 1001 | 10 | N 0 | |
| Ieri h: 03:30 | Sereno | 33 | 23 | 55 | 1001 | 10 | N 5.5 | |
| Ieri h: 03:00 | Sereno | 32 | 24 | 62 | 1001 | 10 | E 9.3 | |
| Ieri h: 02:30 | Sereno | 32 | 25 | 66 | 1001 | 10 | E/NE 7.4 | |
| Ieri h: 02:00 | Sereno | 33 | 25 | 62 | 1001 | 10 | NE 7.4 | |



